createdAt,value
2022-10-17T00:01:54.325Z,12.30
2022-10-17T00:04:20.779Z,12.67
2022-10-17T00:06:47.208Z,13.63
2022-10-17T00:09:13.738Z,11.80
2022-10-17T00:11:40.152Z,10.65
2022-10-17T00:14:06.690Z,11.50
2022-10-17T00:16:36.871Z,14.27
2022-10-17T00:19:07.284Z,10.38
2022-10-17T00:21:34.109Z,7.32
2022-10-17T00:24:01.184Z,9.50
2022-10-17T00:26:29.536Z,11.40
2022-10-17T00:28:56.550Z,10.37
2022-10-17T00:31:24.412Z,9.48
2022-10-17T00:33:51.767Z,7.45
2022-10-17T00:36:21.929Z,9.98
2022-10-17T00:38:51.317Z,9.07
2022-10-17T00:41:20.007Z,8.97
2022-10-17T00:43:54.375Z,9.88
2022-10-17T00:46:22.088Z,9.60
2022-10-17T00:48:50.914Z,10.40
2022-10-17T00:51:20.374Z,8.95
2022-10-17T00:53:46.905Z,11.27
2022-10-17T00:56:13.743Z,10.27
2022-10-17T00:58:40.316Z,11.20
2022-10-17T01:01:06.711Z,8.95
2022-10-17T01:03:33.152Z,9.18
2022-10-17T01:05:59.855Z,10.40
2022-10-17T01:08:26.821Z,9.50
2022-10-17T01:11:26.485Z,8.00
2022-10-17T01:14:02.665Z,8.50
2022-10-17T01:17:02.921Z,7.85
2022-10-17T01:20:01.809Z,6.07
2022-10-17T01:22:40.721Z,8.68
2022-10-17T01:25:16.396Z,8.70
2022-10-17T01:27:56.612Z,8.25
2022-10-17T01:31:00.432Z,8.85
2022-10-17T01:33:48.255Z,5.87
2022-10-17T01:36:22.684Z,9.63
2022-10-17T01:38:53.584Z,6.68
2022-10-17T01:41:31.049Z,9.85
2022-10-17T01:44:08.397Z,10.75
2022-10-17T01:46:37.884Z,11.83
2022-10-17T01:49:07.964Z,7.05
2022-10-17T01:51:42.688Z,8.20
2022-10-17T01:54:18.498Z,8.00
2022-10-17T01:56:47.985Z,9.45
2022-10-17T01:59:22.215Z,8.87
2022-10-17T02:01:52.791Z,9.68
2022-10-17T02:04:19.629Z,8.13
2022-10-17T02:06:46.044Z,10.32
2022-10-17T02:09:24.816Z,10.38
2022-10-17T02:12:29.740Z,11.77
2022-10-17T02:15:23.645Z,11.57
2022-10-17T02:17:52.946Z,10.52
2022-10-17T02:20:36.493Z,11.77
2022-10-17T02:23:12.448Z,9.48
2022-10-17T02:25:46.029Z,13.47
2022-10-17T02:28:19.742Z,11.15
2022-10-17T02:30:46.035Z,11.75
2022-10-17T02:33:20.802Z,11.00
2022-10-17T02:35:52.052Z,9.50
2022-10-17T02:38:18.972Z,11.70
2022-10-17T02:40:46.397Z,9.68
2022-10-17T02:43:13.707Z,14.00
2022-10-17T02:45:40.869Z,11.55
2022-10-17T02:48:30.931Z,10.75
2022-10-17T02:51:07.657Z,9.07
2022-10-17T02:53:52.161Z,12.32
2022-10-17T02:56:21.220Z,10.30
2022-10-17T02:58:57.008Z,11.90
2022-10-17T03:01:24.817Z,15.57
2022-10-17T03:03:51.212Z,10.10
2022-10-17T03:06:17.634Z,12.65
2022-10-17T03:08:43.988Z,11.43
2022-10-17T03:11:10.349Z,13.18
2022-10-17T03:13:39.686Z,12.38
2022-10-17T03:16:06.554Z,13.97
2022-10-17T03:18:32.948Z,11.43
2022-10-17T03:20:59.313Z,11.05
2022-10-17T03:23:25.647Z,13.02
2022-10-17T03:25:52.028Z,15.63
2022-10-17T03:28:18.404Z,9.97
2022-10-17T03:30:44.740Z,12.18
2022-10-17T03:33:11.120Z,12.30
2022-10-17T03:35:40.221Z,14.65
2022-10-17T03:38:06.700Z,11.52
2022-10-17T03:40:33.071Z,14.27
2022-10-17T03:42:59.417Z,12.85
2022-10-17T03:45:25.769Z,12.27
2022-10-17T03:47:52.131Z,11.18
2022-10-17T03:50:18.514Z,14.20
2022-10-17T03:52:48.962Z,15.73
2022-10-17T03:55:16.466Z,11.77
2022-10-17T03:57:45.400Z,16.77
2022-10-17T04:00:13.022Z,15.55
2022-10-17T04:02:39.525Z,13.18
2022-10-17T04:05:06.470Z,11.20
2022-10-17T04:07:32.888Z,11.75
2022-10-17T04:09:59.252Z,10.18
2022-10-17T04:12:25.595Z,11.63
2022-10-17T04:14:51.927Z,15.27
2022-10-17T04:17:18.345Z,14.93
2022-10-17T04:19:44.708Z,11.13
2022-10-17T04:22:11.074Z,9.40
2022-10-17T04:24:37.424Z,10.32
2022-10-17T04:27:03.910Z,10.38
2022-10-17T04:29:30.259Z,11.70
2022-10-17T04:31:56.617Z,18.75
2022-10-17T04:34:22.959Z,9.95
2022-10-17T04:36:49.365Z,12.38
2022-10-17T04:39:15.729Z,12.30
2022-10-17T04:41:42.365Z,11.53
2022-10-17T04:44:10.786Z,9.45
2022-10-17T04:46:37.247Z,10.65
2022-10-17T04:49:03.664Z,9.32
2022-10-17T04:51:30.053Z,9.35
2022-10-17T04:53:56.410Z,9.90
2022-10-17T04:56:24.110Z,9.95
2022-10-17T04:58:51.072Z,11.15
2022-10-17T05:01:20.028Z,10.13
2022-10-17T05:03:46.657Z,9.50
2022-10-17T05:06:18.598Z,12.90
2022-10-17T05:08:45.596Z,12.18
2022-10-17T05:11:20.440Z,12.45
2022-10-17T05:13:52.059Z,14.80
2022-10-17T05:16:18.524Z,14.57
2022-10-17T05:18:47.428Z,18.33
2022-10-17T05:21:15.895Z,11.50
2022-10-17T05:23:42.278Z,14.80
2022-10-17T05:26:08.644Z,14.13
2022-10-17T05:28:35.144Z,11.63
2022-10-17T05:31:06.029Z,12.13
2022-10-17T05:33:33.216Z,13.07
2022-10-17T05:35:59.621Z,11.45
2022-10-17T05:38:26.757Z,12.45
2022-10-17T05:41:00.478Z,12.18
2022-10-17T05:43:27.376Z,12.03
2022-10-17T05:45:54.347Z,11.93
2022-10-17T05:48:21.807Z,11.85
2022-10-17T05:50:48.801Z,10.95
2022-10-17T05:53:16.065Z,14.13
2022-10-17T05:55:42.443Z,16.77
2022-10-17T05:58:11.718Z,12.10
2022-10-17T06:00:44.161Z,16.35
2022-10-17T06:03:12.343Z,13.25
2022-10-17T06:05:38.704Z,14.77
2022-10-17T06:08:05.230Z,11.20
2022-10-17T06:10:31.578Z,12.77
2022-10-17T06:12:57.926Z,13.27
2022-10-17T06:15:24.258Z,10.07
2022-10-17T06:17:50.818Z,11.30
2022-10-17T06:20:17.285Z,14.93
2022-10-17T06:22:43.821Z,15.15
2022-10-17T06:25:10.374Z,14.63
2022-10-17T06:27:36.727Z,14.50
2022-10-17T06:30:04.018Z,12.40
2022-10-17T06:32:30.813Z,11.80
2022-10-17T06:34:57.418Z,11.73
2022-10-17T06:37:23.789Z,10.20
2022-10-17T06:39:50.130Z,9.82
2022-10-17T06:42:16.909Z,13.15
2022-10-17T06:44:43.295Z,10.33
2022-10-17T06:47:10.238Z,12.80
2022-10-17T06:49:36.580Z,13.15
2022-10-17T06:52:02.953Z,10.80
2022-10-17T06:54:29.381Z,10.93
2022-10-17T06:56:56.178Z,9.07
2022-10-17T06:59:22.575Z,10.20
2022-10-17T07:01:48.965Z,10.25
2022-10-17T07:04:15.323Z,13.10
2022-10-17T07:06:41.875Z,9.63
2022-10-17T07:09:08.286Z,12.33
2022-10-17T07:11:35.178Z,9.30
2022-10-17T07:14:02.553Z,11.20
2022-10-17T07:16:29.454Z,9.85
2022-10-17T07:18:56.159Z,11.02
2022-10-17T07:21:22.576Z,10.20
2022-10-17T07:23:49.103Z,12.98
2022-10-17T07:26:17.591Z,10.82
2022-10-17T07:28:46.276Z,10.48
2022-10-17T07:31:15.995Z,12.05
2022-10-17T07:33:43.523Z,11.87
2022-10-17T07:36:09.978Z,8.35
2022-10-17T07:38:36.694Z,9.18
2022-10-17T07:41:06.047Z,9.50
2022-10-17T07:43:33.792Z,10.15
2022-10-17T07:46:02.626Z,11.40
2022-10-17T07:48:29.738Z,10.98
2022-10-17T07:50:56.171Z,10.40
2022-10-17T07:53:22.528Z,11.52
2022-10-17T07:55:49.651Z,11.07
2022-10-17T07:58:16.473Z,9.77
2022-10-17T08:00:43.378Z,9.70
2022-10-17T08:03:10.862Z,16.73
2022-10-17T08:05:37.213Z,9.80
2022-10-17T08:08:03.695Z,10.50
2022-10-17T08:10:30.097Z,9.57
2022-10-17T08:12:57.931Z,10.70
2022-10-17T08:15:29.351Z,8.18
2022-10-17T08:17:59.482Z,9.35
2022-10-17T08:20:25.978Z,11.25
2022-10-17T08:22:53.744Z,20.50
2022-10-17T08:25:20.232Z,9.43
2022-10-17T08:27:46.742Z,9.77
2022-10-17T08:30:13.452Z,8.35
2022-10-17T08:32:39.991Z,9.00
2022-10-17T08:35:06.908Z,9.33
2022-10-17T08:37:33.598Z,9.10
2022-10-17T08:40:00.241Z,7.72
2022-10-17T08:42:45.398Z,6.53
2022-10-17T08:45:26.922Z,7.82
2022-10-17T08:47:59.018Z,6.63
2022-10-17T08:50:48.391Z,7.18
2022-10-17T08:53:36.244Z,8.43
2022-10-17T08:59:17.640Z,7.45
2022-10-17T09:02:02.805Z,5.80
2022-10-17T09:04:47.531Z,5.72
2022-10-17T09:07:46.172Z,6.35
2022-10-17T09:10:28.583Z,11.35
2022-10-17T09:13:24.518Z,4.95
2022-10-17T09:16:14.820Z,4.07
2022-10-17T09:18:46.001Z,5.15
2022-10-17T09:21:20.838Z,5.03
2022-10-17T09:24:08.897Z,6.82
2022-10-17T09:26:39.200Z,4.93
2022-10-17T09:29:15.598Z,5.60
2022-10-17T09:34:32.058Z,5.82
2022-10-17T09:37:00.807Z,4.63
2022-10-17T09:39:31.792Z,4.60
2022-10-17T09:41:59.932Z,6.03
2022-10-17T09:44:47.498Z,5.45
2022-10-17T09:47:34.456Z,5.07
2022-10-17T09:50:01.479Z,7.13
2022-10-17T09:52:36.310Z,4.22
2022-10-17T09:55:17.426Z,5.03
2022-10-17T09:58:00.577Z,5.15
2022-10-17T10:00:30.612Z,7.10
2022-10-17T10:03:20.237Z,3.72
2022-10-17T10:06:03.777Z,7.40
2022-10-17T10:08:34.226Z,4.10
2022-10-17T10:11:07.876Z,4.72
2022-10-17T10:13:36.023Z,4.95
2022-10-17T10:16:32.369Z,6.88
2022-10-17T10:18:58.939Z,5.32
2022-10-17T10:21:27.465Z,5.83
2022-10-17T10:23:59.673Z,3.88
2022-10-17T10:26:29.532Z,7.38
2022-10-17T10:29:02.511Z,5.65
2022-10-17T10:31:39.809Z,7.55
2022-10-17T10:34:32.726Z,6.87
2022-10-17T10:37:06.280Z,7.35
2022-10-17T10:39:32.570Z,6.68
2022-10-17T10:42:01.223Z,4.45
2022-10-17T10:44:32.032Z,6.20
2022-10-17T10:47:28.069Z,5.27
2022-10-17T10:50:37.558Z,6.40
2022-10-17T10:53:14.729Z,6.72
2022-10-17T10:55:51.471Z,4.50
2022-10-17T10:58:33.127Z,4.43
2022-10-17T11:01:05.043Z,8.83
2022-10-17T11:06:18.941Z,7.18
2022-10-17T11:09:06.516Z,5.53
2022-10-17T11:11:39.737Z,5.93
2022-10-17T11:14:38.862Z,5.97
2022-10-17T11:17:20.398Z,6.35
2022-10-17T11:19:58.774Z,6.65
2022-10-17T11:22:32.356Z,5.32
2022-10-17T11:25:26.163Z,4.78
2022-10-17T11:27:52.556Z,7.63
2022-10-17T11:30:19.200Z,4.25
2022-10-17T11:32:54.071Z,6.18
2022-10-17T11:35:45.147Z,5.13
2022-10-17T11:38:21.136Z,5.38
2022-10-17T11:40:54.118Z,7.20
2022-10-17T11:43:28.633Z,5.28
2022-10-17T11:45:59.534Z,6.10
2022-10-17T11:48:35.601Z,7.28
2022-10-17T11:54:04.249Z,5.17
2022-10-17T11:57:02.767Z,4.97
2022-10-17T11:59:45.839Z,10.40
2022-10-17T12:02:30.930Z,7.03
2022-10-17T12:05:20.984Z,6.20
2022-10-17T12:07:53.154Z,8.13
2022-10-17T12:10:48.980Z,6.22
2022-10-17T12:13:27.560Z,5.65
2022-10-17T12:16:17.949Z,8.90
2022-10-17T12:18:45.454Z,5.88
2022-10-17T12:21:12.103Z,9.37
2022-10-17T12:23:39.924Z,5.47
2022-10-17T12:26:09.364Z,7.53
2022-10-17T12:28:39.314Z,7.30
2022-10-17T12:31:29.620Z,5.07
2022-10-17T12:34:00.866Z,5.53
2022-10-17T12:36:27.170Z,6.65
2022-10-17T12:39:02.717Z,10.27
2022-10-17T12:41:38.318Z,5.50
2022-10-17T12:44:13.853Z,8.27
2022-10-17T12:46:55.706Z,9.40
2022-10-17T12:49:47.124Z,6.15
2022-10-17T12:52:28.928Z,7.35
2022-10-17T12:55:11.616Z,5.53
2022-10-17T12:57:59.377Z,6.10
2022-10-17T13:00:43.795Z,6.23
2022-10-17T13:03:20.253Z,4.32
2022-10-17T13:05:55.520Z,8.73
2022-10-17T13:08:32.810Z,7.38
2022-10-17T13:11:00.680Z,6.35
2022-10-17T13:13:42.725Z,6.23
2022-10-17T13:16:09.258Z,6.28
2022-10-17T13:18:35.916Z,3.63
2022-10-17T13:21:15.857Z,6.93
2022-10-17T13:23:42.297Z,5.22
2022-10-17T13:26:22.138Z,12.00
2022-10-17T13:29:01.713Z,8.45
2022-10-17T13:31:31.815Z,7.30
2022-10-17T13:34:00.753Z,5.53
2022-10-17T13:36:29.337Z,6.25
2022-10-17T13:38:57.481Z,6.40
2022-10-17T13:41:35.729Z,8.20
2022-10-17T13:44:09.218Z,6.28
2022-10-17T13:46:38.473Z,7.00
2022-10-17T13:49:20.075Z,8.63
2022-10-17T13:51:50.766Z,8.83
2022-10-17T13:54:34.066Z,5.25
2022-10-17T13:57:02.004Z,6.00
2022-10-17T13:59:34.378Z,9.43
2022-10-17T14:02:01.943Z,8.02
2022-10-17T14:04:35.509Z,5.97
2022-10-17T14:07:29.269Z,6.85
2022-10-17T14:09:57.914Z,7.95
2022-10-17T14:12:24.324Z,7.03
2022-10-17T14:15:10.404Z,6.95
2022-10-17T14:17:38.503Z,6.37
2022-10-17T14:20:26.640Z,7.28
2022-10-17T14:23:20.935Z,4.95
2022-10-17T14:25:40.820Z,5.47
2022-10-17T14:28:09.108Z,5.40
2022-10-17T14:30:55.881Z,7.80
2022-10-17T14:33:28.439Z,9.65
2022-10-17T14:35:57.523Z,6.82
2022-10-17T14:38:25.219Z,8.57
2022-10-17T14:41:23.581Z,6.63
2022-10-17T14:44:06.386Z,5.70
2022-10-17T14:46:35.670Z,6.68
2022-10-17T14:49:15.193Z,5.30
2022-10-17T14:52:07.517Z,4.38
2022-10-17T14:54:35.877Z,4.57
2022-10-17T14:57:14.688Z,6.93
2022-10-17T14:59:56.426Z,6.75
2022-10-17T15:02:28.481Z,6.13
2022-10-17T15:04:55.692Z,7.72
2022-10-17T15:07:23.481Z,6.43
2022-10-17T15:09:51.601Z,5.40
2022-10-17T15:12:20.789Z,5.30
2022-10-17T15:14:51.547Z,4.13
2022-10-17T15:17:29.925Z,5.65
2022-10-17T15:19:57.341Z,7.07
2022-10-17T15:22:24.288Z,8.50
2022-10-17T15:24:50.742Z,9.50
2022-10-17T15:27:19.743Z,3.67
2022-10-17T15:29:47.068Z,7.20
2022-10-17T15:32:14.294Z,5.35
2022-10-17T15:34:40.824Z,9.20
2022-10-17T15:37:16.330Z,7.30
2022-10-17T15:39:42.697Z,13.07
2022-10-17T15:42:11.812Z,5.70
2022-10-17T15:44:38.177Z,8.57
2022-10-17T15:47:22.380Z,6.43
2022-10-17T15:49:48.744Z,9.18
2022-10-17T15:52:15.092Z,6.32
2022-10-17T15:54:41.472Z,5.25
2022-10-17T15:57:17.749Z,12.95
2022-10-17T15:59:46.804Z,17.80
2022-10-17T16:02:14.901Z,18.60
2022-10-17T16:04:41.379Z,15.25
2022-10-17T16:07:07.970Z,9.95
2022-10-17T16:09:34.981Z,9.30
2022-10-17T16:12:01.743Z,12.77
2022-10-17T16:14:28.416Z,14.57
2022-10-17T16:16:54.772Z,11.05
2022-10-17T16:19:21.663Z,12.10
2022-10-17T16:21:48.055Z,7.13
2022-10-17T16:24:14.391Z,11.20
2022-10-17T16:26:41.023Z,8.60
2022-10-17T16:29:09.218Z,7.78
2022-10-17T16:31:39.886Z,12.70
2022-10-17T16:34:06.768Z,12.82
2022-10-17T16:36:33.128Z,10.23
2022-10-17T16:38:59.503Z,6.53
2022-10-17T16:41:54.781Z,8.63
2022-10-17T16:44:24.101Z,6.78
2022-10-17T16:46:50.463Z,7.63
2022-10-17T16:49:18.156Z,13.13
2022-10-17T16:51:44.564Z,9.32
2022-10-17T16:54:10.916Z,10.85
2022-10-17T16:56:37.306Z,8.10
2022-10-17T16:59:04.113Z,15.52
2022-10-17T17:01:30.557Z,12.23
2022-10-17T17:03:57.086Z,15.45
2022-10-17T17:06:28.631Z,15.48
2022-10-17T17:08:55.903Z,11.57
2022-10-17T17:11:24.332Z,7.25
2022-10-17T17:13:50.684Z,11.27
2022-10-17T17:16:21.568Z,8.45
2022-10-17T17:18:50.779Z,18.67
2022-10-17T17:21:17.255Z,16.20
2022-10-17T17:23:43.780Z,19.33
2022-10-17T17:26:13.478Z,7.10
2022-10-17T17:28:40.793Z,9.88
2022-10-17T17:31:09.921Z,9.82
2022-10-17T17:33:38.555Z,8.18
2022-10-17T17:36:06.349Z,7.28
2022-10-17T17:38:34.663Z,7.23
2022-10-17T17:41:01.871Z,8.80
2022-10-17T17:43:28.595Z,8.63
2022-10-17T17:45:55.105Z,11.90
2022-10-17T17:48:21.697Z,7.30
2022-10-17T17:50:48.359Z,9.87
2022-10-17T17:53:16.253Z,9.65
2022-10-17T17:55:42.590Z,7.63
2022-10-17T17:58:09.721Z,8.93
2022-10-17T18:00:36.274Z,9.68
2022-10-17T18:03:02.974Z,7.83
2022-10-17T18:05:29.765Z,10.23
2022-10-17T18:07:56.196Z,5.95
2022-10-17T18:10:22.576Z,7.68
2022-10-17T18:12:48.931Z,9.00
2022-10-17T18:15:15.524Z,6.37
2022-10-17T18:17:42.361Z,11.85
2022-10-17T18:20:09.361Z,7.32
2022-10-17T18:22:35.758Z,11.55
2022-10-17T18:25:02.755Z,10.60
2022-10-17T18:27:29.174Z,9.27
2022-10-17T18:29:56.129Z,13.10
2022-10-17T18:32:22.543Z,13.43
2022-10-17T18:34:48.884Z,8.93
2022-10-17T18:37:15.240Z,7.93
2022-10-17T18:39:41.595Z,7.70
2022-10-17T18:42:08.098Z,8.10
2022-10-17T18:44:34.490Z,12.13
2022-10-17T18:47:03.924Z,11.85
2022-10-17T18:49:31.101Z,14.00
2022-10-17T18:51:57.565Z,10.33
2022-10-17T18:54:24.345Z,11.35
2022-10-17T18:56:53.127Z,11.23
2022-10-17T18:59:20.554Z,11.82
2022-10-17T19:01:47.429Z,8.93
2022-10-17T19:04:14.338Z,10.70
2022-10-17T19:06:41.638Z,9.60
2022-10-17T19:09:10.337Z,12.07
2022-10-17T19:11:38.178Z,8.50
2022-10-17T19:14:12.580Z,10.23
2022-10-17T19:16:42.729Z,7.53
2022-10-17T19:19:15.486Z,6.53
2022-10-17T19:21:42.004Z,11.40
2022-10-17T19:24:12.638Z,8.25
2022-10-17T19:26:40.618Z,10.57
2022-10-17T19:29:07.082Z,8.67
2022-10-17T19:31:34.898Z,8.10
2022-10-17T19:34:01.300Z,11.27
2022-10-17T19:36:33.350Z,7.22
2022-10-17T19:39:02.235Z,7.10
2022-10-17T19:41:28.733Z,6.93
2022-10-17T19:43:55.167Z,9.38
2022-10-17T19:46:24.036Z,8.15
2022-10-17T19:48:51.183Z,8.52
2022-10-17T19:51:19.370Z,8.10
2022-10-17T19:53:46.802Z,9.83
2022-10-17T19:56:14.096Z,8.52
2022-10-17T19:58:46.595Z,12.20
2022-10-17T20:01:19.090Z,8.10
2022-10-17T20:03:46.449Z,5.82
2022-10-17T20:06:13.515Z,12.97
2022-10-17T20:08:40.666Z,13.90
2022-10-17T20:11:10.434Z,11.15
2022-10-17T20:13:37.463Z,13.10
2022-10-17T20:16:06.187Z,21.30
2022-10-17T20:18:32.655Z,21.77
2022-10-17T20:21:08.343Z,15.15
2022-10-17T20:23:35.164Z,13.30
2022-10-17T20:26:08.600Z,15.75
2022-10-17T20:28:51.106Z,17.25
2022-10-17T20:31:18.080Z,14.73
2022-10-17T20:33:44.604Z,11.38
2022-10-17T20:36:12.237Z,11.65
2022-10-17T20:38:38.787Z,13.50
2022-10-17T20:41:08.598Z,16.10
2022-10-17T20:43:35.628Z,12.10
2022-10-17T20:46:15.465Z,11.75
2022-10-17T20:48:52.680Z,14.82
2022-10-17T20:51:20.574Z,13.85
2022-10-17T20:53:48.033Z,19.20
2022-10-17T20:56:21.178Z,16.57
2022-10-17T20:58:56.025Z,15.43
2022-10-17T21:01:23.200Z,16.10
2022-10-17T21:03:50.119Z,16.20
2022-10-17T21:06:17.926Z,14.60
2022-10-17T21:08:46.052Z,15.13
2022-10-17T21:11:18.338Z,12.30
2022-10-17T21:13:45.939Z,14.02
2022-10-17T21:16:18.191Z,12.25
2022-10-17T21:18:45.667Z,13.68
2022-10-17T21:21:11.935Z,14.20
2022-10-17T21:23:39.607Z,12.23
2022-10-17T21:26:08.804Z,12.85
2022-10-17T21:28:36.824Z,12.20
2022-10-17T21:31:20.164Z,11.38
2022-10-17T21:33:49.818Z,10.70
2022-10-17T21:36:17.841Z,13.73
2022-10-17T21:38:46.057Z,11.27
2022-10-17T21:41:14.469Z,10.57
2022-10-17T21:43:42.624Z,11.82
2022-10-17T21:46:14.587Z,11.43
2022-10-17T21:48:41.564Z,9.70
2022-10-17T21:51:12.738Z,9.65
2022-10-17T21:53:39.091Z,12.20
2022-10-17T21:56:08.226Z,10.50
2022-10-17T21:58:34.766Z,10.17
2022-10-17T22:01:06.416Z,6.85
2022-10-17T22:03:38.646Z,8.63
2022-10-17T22:06:34.540Z,10.57
2022-10-17T22:08:55.706Z,11.75
2022-10-17T22:11:30.847Z,12.77
2022-10-17T22:13:59.636Z,10.82
2022-10-17T22:16:26.449Z,9.23
2022-10-17T22:18:56.417Z,12.68
2022-10-17T22:21:22.896Z,11.68
2022-10-17T22:23:58.906Z,10.90
2022-10-17T22:26:26.677Z,11.27
2022-10-17T22:28:53.351Z,10.15
2022-10-17T22:31:20.002Z,9.90
2022-10-17T22:33:46.628Z,10.00
2022-10-17T22:36:13.526Z,15.23
2022-10-17T22:38:39.946Z,11.68
2022-10-17T22:41:06.564Z,8.63
2022-10-17T22:43:32.937Z,8.82
2022-10-17T22:46:01.704Z,9.98
2022-10-17T22:48:29.155Z,9.17
2022-10-17T22:50:57.283Z,10.07
2022-10-17T22:53:26.170Z,9.05
2022-10-17T22:55:56.817Z,11.95
2022-10-17T22:58:24.091Z,9.77
2022-10-17T23:00:51.884Z,11.40
2022-10-17T23:03:19.394Z,11.55
2022-10-17T23:05:45.768Z,10.27
2022-10-17T23:08:13.471Z,6.20
2022-10-17T23:10:39.878Z,11.27
2022-10-17T23:13:06.715Z,7.70
2022-10-17T23:15:33.955Z,10.73
2022-10-17T23:18:01.271Z,10.68
2022-10-17T23:20:28.981Z,15.13
2022-10-17T23:22:55.542Z,7.38
2022-10-17T23:25:22.495Z,8.57
2022-10-17T23:27:49.069Z,7.90
2022-10-17T23:30:15.627Z,9.18
2022-10-17T23:32:41.997Z,9.07
2022-10-17T23:35:08.827Z,9.15
2022-10-17T23:37:35.819Z,9.23
2022-10-17T23:40:03.435Z,9.48
2022-10-17T23:42:29.858Z,7.97
2022-10-17T23:44:56.211Z,7.45
2022-10-17T23:47:22.598Z,13.68
2022-10-17T23:49:49.016Z,8.33
2022-10-17T23:52:15.653Z,9.43
2022-10-17T23:57:13.289Z,7.47
2022-10-17T23:59:39.640Z,9.40
